Abeille Honfleur 19 — FV6095 — position and weather

sailwx.info

Track history (hours):
 
Tides and Currents Weather Stations Pressure Air Temp Water Temp Dewpoint Dewpoint Depression Visibility Wind Speed Wind Dir Waves Ship Positions

Abeille Honfleur 19

Last reported at 2014-Oct-30 09:33 UTC. Time now 2014-Oct-30 19:08 UTC.
Position N 47°16' W 002°12'.

Length 30 m.

Type: Tug. MMSI: 227005280.

Date/timePositionNaut miles runAvg speedWind from/ knotsBaromVisibWave heightAir tempDewpointWater temp
2014-Oct-30 09:33N 47°16' W 002°12'1 0.4
2014-Oct-30 06:25N 47°17' W 002°12'0 0.0
2014-Oct-29 19:33N 47°17' W 002°12'0 0.0
2014-Oct-29 10:07N 47°17' W 002°12'0 0.0
2014-Oct-29 08:33N 47°17' W 002°12'0 0.0
2014-Oct-29 07:10N 47°17' W 002°12'0 0.0
2014-Oct-29 04:34N 47°17' W 002°12'0 0.0
2014-Oct-29 03:18N 47°17' W 002°12'0 0.0
2014-Oct-29 01:09N 47°17' W 002°12'0 0.0
2014-Oct-29 00:03N 47°17' W 002°12'0 0.0
2014-Oct-28 23:33N 47°17' W 002°12'1 0.2
2014-Oct-28 19:27N 47°17' W 002°12'3 0.1
2014-Oct-27 15:12N 47°18' W 002°08'1 1.6
2014-Oct-27 14:23N 47°18' W 002°06'4 0.7
2014-Oct-27 08:31N 47°17' W 002°12'2 2.3
2014-Oct-27 07:31N 47°18' W 002°09'0 0.0
2014-Oct-27 06:26N 47°18' W 002°09'0 0.0
2014-Oct-27 05:26N 47°18' W 002°09'0 0.0
2014-Oct-27 04:19N 47°18' W 002°09'0 0.0
2014-Oct-27 02:07N 47°18' W 002°09'  
Track history (hours):
 
Tides and Currents Weather Stations Pressure Air Temp Water Temp Dewpoint Dewpoint Depression Visibility Wind Speed Wind Dir Waves Ship Positions

Abeille Honfleur 19

Last reported at 2014-Oct-30 09:33 UTC. Time now 2014-Oct-30 19:08 UTC.
Position N 47°16' W 002°12'.

Length 30 m.

Type: Tug. MMSI: 227005280.

Date/timePositionNaut miles runAvg speedWind from/ knotsBaromVisibWave heightAir tempDewpointWater temp
2014-Oct-30 09:33N 47°16' W 002°12'1 0.4
2014-Oct-30 06:25N 47°17' W 002°12'0 0.0
2014-Oct-29 19:33N 47°17' W 002°12'0 0.0
2014-Oct-29 10:07N 47°17' W 002°12'0 0.0
2014-Oct-29 08:33N 47°17' W 002°12'0 0.0
2014-Oct-29 07:10N 47°17' W 002°12'0 0.0
2014-Oct-29 04:34N 47°17' W 002°12'0 0.0
2014-Oct-29 03:18N 47°17' W 002°12'0 0.0
2014-Oct-29 01:09N 47°17' W 002°12'0 0.0
2014-Oct-29 00:03N 47°17' W 002°12'0 0.0
2014-Oct-28 23:33N 47°17' W 002°12'1 0.2
2014-Oct-28 19:27N 47°17' W 002°12'3 0.1
2014-Oct-27 15:12N 47°18' W 002°08'1 1.6
2014-Oct-27 14:23N 47°18' W 002°06'4 0.7
2014-Oct-27 08:31N 47°17' W 002°12'2 2.3
2014-Oct-27 07:31N 47°18' W 002°09'0 0.0
2014-Oct-27 06:26N 47°18' W 002°09'0 0.0
2014-Oct-27 05:26N 47°18' W 002°09'0 0.0
2014-Oct-27 04:19N 47°18' W 002°09'0 0.0
2014-Oct-27 02:07N 47°18' W 002°09'  

Dump ship's entire track history